createdAt,value
2019-06-07T00:00:02.916Z,11.80
2019-06-07T00:01:02.148Z,11.91
2019-06-07T00:02:02.183Z,11.73
2019-06-07T00:03:02.310Z,11.66
2019-06-07T00:04:02.169Z,11.76
2019-06-07T00:05:02.182Z,11.84
2019-06-07T00:06:02.308Z,11.77
2019-06-07T00:07:02.125Z,11.78
2019-06-07T00:08:07.843Z,11.70
2019-06-07T00:09:02.684Z,11.77
2019-06-07T00:10:02.218Z,11.80
2019-06-07T00:11:02.236Z,11.81
2019-06-07T00:12:02.265Z,12.09
2019-06-07T00:13:02.269Z,12.09
2019-06-07T00:14:02.474Z,11.96
2019-06-07T00:15:02.270Z,11.78
2019-06-07T00:16:02.313Z,11.66
2019-06-07T00:17:02.335Z,11.69
2019-06-07T00:18:02.332Z,11.60
2019-06-07T00:19:02.287Z,11.67
2019-06-07T00:20:02.905Z,11.71
2019-06-07T00:21:02.202Z,11.62
2019-06-07T00:22:22.564Z,11.78
2019-06-07T00:23:02.231Z,11.80
2019-06-07T00:24:02.239Z,11.73
2019-06-07T00:25:02.447Z,11.70
2019-06-07T00:26:02.155Z,11.64
2019-06-07T00:27:02.280Z,11.60
2019-06-07T00:28:02.301Z,11.79
2019-06-07T00:29:02.301Z,11.71
2019-06-07T00:30:29.709Z,11.54
2019-06-07T00:31:02.311Z,11.76
2019-06-07T00:32:02.266Z,11.94
2019-06-07T00:33:02.287Z,11.68
2019-06-07T00:34:02.326Z,11.68
2019-06-07T00:35:02.464Z,11.67
2019-06-07T00:36:02.430Z,11.69
2019-06-07T00:37:02.378Z,11.62
2019-06-07T00:38:02.351Z,11.63
2019-06-07T00:39:02.394Z,11.74
2019-06-07T00:40:14.122Z,11.63
2019-06-07T00:41:02.415Z,11.60
2019-06-07T00:42:02.398Z,11.71
2019-06-07T00:43:02.517Z,11.50
2019-06-07T00:44:02.412Z,11.53
2019-06-07T00:45:02.315Z,11.60
2019-06-07T00:46:02.407Z,11.60
2019-06-07T00:47:02.538Z,11.65
2019-06-07T00:48:02.221Z,11.64
2019-06-07T00:49:02.324Z,11.58
2019-06-07T00:50:02.451Z,11.49
2019-06-07T00:51:02.303Z,11.47
2019-06-07T00:52:02.425Z,11.51
2019-06-07T00:53:19.743Z,11.45
2019-06-07T00:54:02.387Z,11.48
2019-06-07T00:55:02.156Z,11.36
2019-06-07T00:56:02.243Z,11.37
2019-06-07T00:57:02.347Z,11.46
2019-06-07T00:58:02.646Z,11.47
2019-06-07T00:59:11.299Z,11.58
2019-06-07T01:00:02.302Z,11.57
2019-06-07T01:01:02.312Z,11.47
2019-06-07T01:02:02.365Z,11.44
2019-06-07T01:03:02.343Z,11.49
2019-06-07T01:04:02.332Z,11.52
2019-06-07T01:05:02.348Z,11.66
2019-06-07T01:06:02.346Z,11.82
2019-06-07T01:07:02.483Z,11.43
2019-06-07T01:08:02.449Z,11.30
2019-06-07T01:09:02.706Z,11.44
2019-06-07T01:10:02.367Z,11.22
2019-06-07T01:11:02.268Z,11.23
2019-06-07T01:12:02.389Z,11.30
2019-06-07T01:13:02.301Z,11.35
2019-06-07T01:14:02.317Z,11.25
2019-06-07T01:15:02.340Z,11.23
2019-06-07T01:16:02.407Z,11.40
2019-06-07T01:17:22.510Z,11.43
2019-06-07T01:19:02.461Z,11.18
2019-06-07T01:20:02.329Z,11.27
2019-06-07T01:21:02.345Z,11.39
2019-06-07T01:22:02.379Z,11.49
2019-06-07T01:23:02.405Z,11.47
2019-06-07T01:24:11.550Z,11.53
2019-06-07T01:25:02.391Z,11.27
2019-06-07T01:26:02.396Z,11.19
2019-06-07T01:27:02.361Z,11.15
2019-06-07T01:28:02.320Z,11.16
2019-06-07T01:29:02.434Z,11.08
2019-06-07T01:30:02.454Z,11.06
2019-06-07T01:31:02.304Z,11.15
2019-06-07T01:32:02.413Z,11.11
2019-06-07T01:33:02.658Z,11.23
2019-06-07T01:34:02.362Z,11.17
2019-06-07T01:35:02.346Z,11.53
2019-06-07T01:36:02.394Z,11.39
2019-06-07T01:37:02.424Z,11.30
2019-06-07T01:38:02.376Z,11.18
2019-06-07T01:39:02.395Z,11.11
2019-06-07T01:40:02.469Z,11.13
2019-06-07T01:41:02.524Z,11.15
2019-06-07T01:42:02.418Z,11.15
2019-06-07T01:43:02.435Z,11.15
2019-06-07T01:44:02.365Z,11.36
2019-06-07T01:45:02.369Z,11.26
2019-06-07T01:46:02.380Z,11.18
2019-06-07T01:47:02.395Z,11.21
2019-06-07T01:48:02.343Z,11.22
2019-06-07T01:49:02.362Z,11.17
2019-06-07T01:50:02.410Z,11.15
2019-06-07T01:51:02.590Z,11.06
2019-06-07T01:52:02.523Z,10.96
2019-06-07T01:53:02.403Z,10.92
2019-06-07T01:54:48.672Z,11.10
2019-06-07T01:55:02.437Z,11.08
2019-06-07T01:56:02.427Z,11.09
2019-06-07T01:57:02.507Z,11.05
2019-06-07T01:58:02.345Z,10.90
2019-06-07T01:59:02.361Z,10.88
2019-06-07T02:00:02.381Z,10.79
2019-06-07T02:01:02.385Z,10.75
2019-06-07T02:02:02.418Z,10.76
2019-06-07T02:03:02.444Z,10.72
2019-06-07T02:04:02.969Z,10.81
2019-06-07T02:05:02.496Z,10.97
2019-06-07T02:06:02.403Z,10.80
2019-06-07T02:07:02.452Z,10.86
2019-06-07T02:08:02.433Z,11.02
2019-06-07T02:09:02.586Z,10.82
2019-06-07T02:10:02.532Z,10.73
2019-06-07T02:11:02.454Z,10.76
2019-06-07T02:12:02.517Z,10.74
2019-06-07T02:13:02.444Z,10.71
2019-06-07T02:14:02.634Z,10.67
2019-06-07T02:15:03.209Z,10.60
2019-06-07T02:16:02.396Z,10.60
2019-06-07T02:17:02.470Z,10.67
2019-06-07T02:18:02.424Z,10.76
2019-06-07T02:19:03.912Z,10.73
2019-06-07T02:20:02.431Z,10.69
2019-06-07T02:21:02.506Z,10.70
2019-06-07T02:22:02.654Z,10.67
2019-06-07T02:23:02.417Z,10.97
2019-06-07T02:24:02.461Z,10.80
2019-06-07T02:25:35.079Z,10.72
2019-06-07T02:26:02.388Z,10.71
2019-06-07T02:27:02.501Z,10.75
2019-06-07T02:28:26.636Z,10.80
2019-06-07T02:29:02.403Z,10.84
2019-06-07T02:30:35.203Z,10.72
2019-06-07T02:31:02.344Z,10.59
2019-06-07T02:32:02.415Z,10.52
2019-06-07T02:33:02.408Z,10.58
2019-06-07T02:34:02.441Z,10.58
2019-06-07T02:35:02.440Z,10.58
2019-06-07T02:36:02.561Z,10.66
2019-06-07T02:37:02.503Z,10.71
2019-06-07T02:38:02.415Z,10.59
2019-06-07T02:39:02.418Z,10.57
2019-06-07T02:40:02.483Z,10.76
2019-06-07T02:41:02.499Z,10.87
2019-06-07T02:42:02.498Z,10.90
2019-06-07T02:43:02.430Z,10.86
2019-06-07T02:44:02.495Z,10.76
2019-06-07T02:45:02.630Z,10.73
2019-06-07T02:46:24.437Z,10.73
2019-06-07T02:47:02.517Z,10.86
2019-06-07T02:48:02.427Z,11.01
2019-06-07T02:49:02.424Z,10.93
2019-06-07T02:50:02.428Z,11.07
2019-06-07T02:51:02.427Z,11.02
2019-06-07T02:52:02.586Z,11.00
2019-06-07T02:53:02.467Z,11.06
2019-06-07T02:54:02.491Z,11.10
2019-06-07T02:55:02.481Z,10.97
2019-06-07T02:57:02.909Z,11.08
2019-06-07T02:58:02.495Z,11.03
2019-06-07T02:59:02.512Z,10.84
2019-06-07T03:00:17.067Z,10.71
2019-06-07T03:01:09.337Z,10.66
2019-06-07T03:02:02.709Z,10.74
2019-06-07T03:03:02.526Z,10.62
2019-06-07T03:04:02.449Z,10.55
2019-06-07T03:05:02.454Z,10.50
2019-06-07T03:06:02.570Z,10.60
2019-06-07T03:07:02.485Z,10.52
2019-06-07T03:08:02.661Z,10.55
2019-06-07T03:09:02.493Z,10.54
2019-06-07T03:10:02.522Z,10.85
2019-06-07T03:11:02.518Z,10.72
2019-06-07T03:12:02.531Z,10.55
2019-06-07T03:13:02.517Z,10.49
2019-06-07T03:14:02.539Z,10.48
2019-06-07T03:15:02.561Z,10.71
2019-06-07T03:16:02.533Z,10.70
2019-06-07T03:17:02.470Z,10.74
2019-06-07T03:18:02.469Z,10.55
2019-06-07T03:19:02.658Z,10.73
2019-06-07T03:20:02.389Z,10.64
2019-06-07T03:21:05.513Z,10.54
2019-06-07T03:22:02.491Z,10.64
2019-06-07T03:23:02.489Z,10.62
2019-06-07T03:24:02.490Z,10.71
2019-06-07T03:25:02.600Z,10.62
2019-06-07T03:26:02.540Z,10.70
2019-06-07T03:27:34.849Z,10.61
2019-06-07T03:28:02.504Z,10.67
2019-06-07T03:29:02.635Z,10.77
2019-06-07T03:30:35.174Z,10.83
2019-06-07T03:31:03.141Z,10.75
2019-06-07T03:32:02.469Z,10.85
2019-06-07T03:33:06.276Z,10.67
2019-06-07T03:34:02.474Z,10.66
2019-06-07T03:35:02.495Z,10.54
2019-06-07T03:36:22.959Z,10.51
2019-06-07T03:37:02.756Z,10.51
2019-06-07T03:38:02.820Z,10.49
2019-06-07T03:39:02.746Z,10.45
2019-06-07T03:40:02.521Z,10.48
2019-06-07T03:41:02.521Z,10.65
2019-06-07T03:42:05.609Z,10.54
2019-06-07T03:43:02.623Z,10.55
2019-06-07T03:44:02.548Z,10.60
2019-06-07T03:45:02.573Z,10.54
2019-06-07T03:46:02.541Z,10.60
2019-06-07T03:47:02.616Z,10.82
2019-06-07T03:48:02.684Z,10.88
2019-06-07T03:49:02.575Z,10.79
2019-06-07T03:50:02.566Z,10.81
2019-06-07T03:51:04.986Z,10.91
2019-06-07T03:52:02.513Z,10.86
2019-06-07T03:53:02.518Z,10.94
2019-06-07T03:54:02.502Z,10.81
2019-06-07T03:55:02.539Z,10.91
2019-06-07T03:56:02.960Z,11.01
2019-06-07T03:57:02.650Z,11.20
2019-06-07T03:58:31.317Z,10.85
2019-06-07T03:59:02.544Z,10.88
2019-06-07T04:00:02.683Z,10.76
2019-06-07T04:01:02.478Z,10.95
2019-06-07T04:02:02.701Z,10.95
2019-06-07T04:03:02.450Z,10.89
2019-06-07T04:04:02.485Z,10.76
2019-06-07T04:05:02.519Z,10.83
2019-06-07T04:06:02.500Z,10.89
2019-06-07T04:07:02.509Z,10.96
2019-06-07T04:08:02.530Z,11.00
2019-06-07T04:09:02.516Z,10.97
2019-06-07T04:10:02.560Z,11.01
2019-06-07T04:11:02.723Z,11.06
2019-06-07T04:12:02.582Z,11.09
2019-06-07T04:13:02.571Z,10.82
2019-06-07T04:14:02.790Z,10.75
2019-06-07T04:15:02.553Z,11.02
2019-06-07T04:16:02.660Z,11.02
2019-06-07T04:17:02.606Z,11.08
2019-06-07T04:18:04.079Z,11.12
2019-06-07T04:19:02.488Z,11.19
2019-06-07T04:20:03.041Z,11.17
2019-06-07T04:21:02.515Z,11.27
2019-06-07T04:22:02.649Z,11.39
2019-06-07T04:23:02.477Z,11.48
2019-06-07T04:24:02.528Z,11.44
2019-06-07T04:25:02.572Z,11.30
2019-06-07T04:26:02.652Z,11.29
2019-06-07T04:27:02.534Z,11.32
2019-06-07T04:28:02.889Z,11.42
2019-06-07T04:29:32.544Z,11.39
2019-06-07T04:30:07.337Z,11.35
2019-06-07T04:31:02.616Z,11.37
2019-06-07T04:32:04.311Z,11.44
2019-06-07T04:33:02.702Z,11.50
2019-06-07T04:34:02.724Z,11.54
2019-06-07T04:35:02.531Z,11.55
2019-06-07T04:36:02.560Z,11.62
2019-06-07T04:37:02.563Z,11.58
2019-06-07T04:38:02.534Z,11.52
2019-06-07T04:39:02.567Z,11.41
2019-06-07T04:40:02.608Z,11.42
2019-06-07T04:41:02.688Z,11.45
2019-06-07T04:42:02.608Z,11.66
2019-06-07T04:43:02.614Z,11.73
2019-06-07T04:44:02.720Z,11.69
2019-06-07T04:45:02.732Z,11.81
2019-06-07T04:46:02.561Z,11.97
2019-06-07T04:47:02.541Z,12.03
2019-06-07T04:48:02.778Z,11.91
2019-06-07T04:49:02.526Z,11.95
2019-06-07T04:50:02.538Z,11.73
2019-06-07T04:51:02.577Z,11.70
2019-06-07T04:52:02.600Z,11.52
2019-06-07T04:53:02.582Z,11.27
2019-06-07T04:54:02.573Z,11.26
2019-06-07T04:55:02.784Z,11.34
2019-06-07T04:56:02.598Z,11.63
2019-06-07T04:57:02.625Z,11.56
2019-06-07T04:58:02.643Z,11.40
2019-06-07T04:59:02.600Z,11.46
2019-06-07T05:00:33.330Z,11.58
2019-06-07T05:01:03.701Z,11.61
2019-06-07T05:02:02.575Z,11.74
2019-06-07T05:03:02.688Z,11.65
2019-06-07T05:04:02.612Z,11.80
2019-06-07T05:05:02.675Z,11.88
2019-06-07T05:06:02.836Z,11.48
2019-06-07T05:07:02.597Z,11.52
2019-06-07T05:08:07.376Z,11.43
2019-06-07T05:09:02.621Z,11.70
2019-06-07T05:10:02.658Z,11.87
2019-06-07T05:11:02.612Z,11.73
2019-06-07T05:12:02.649Z,11.47
2019-06-07T05:13:02.625Z,11.28
2019-06-07T05:14:02.709Z,11.60
2019-06-07T05:15:02.748Z,11.85
2019-06-07T05:16:02.623Z,11.59
2019-06-07T05:17:02.786Z,11.59
2019-06-07T05:18:05.563Z,11.73
2019-06-07T05:19:02.548Z,11.62
2019-06-07T05:20:02.682Z,11.93
2019-06-07T05:21:02.586Z,11.92
2019-06-07T05:22:04.752Z,12.06
2019-06-07T05:23:02.616Z,12.18
2019-06-07T05:24:07.480Z,12.30
2019-06-07T05:25:02.736Z,12.14
2019-06-07T05:26:02.625Z,11.92
2019-06-07T05:27:02.697Z,11.78
2019-06-07T05:28:02.780Z,11.85
2019-06-07T05:29:02.659Z,11.99
2019-06-07T05:30:24.304Z,11.88
2019-06-07T05:31:05.005Z,12.01
2019-06-07T05:32:02.779Z,11.96
2019-06-07T05:33:02.698Z,11.80
2019-06-07T05:34:02.676Z,11.76
2019-06-07T05:35:03.340Z,11.81
2019-06-07T05:36:02.580Z,11.76
2019-06-07T05:37:11.509Z,11.98
2019-06-07T05:38:02.617Z,12.00
2019-06-07T05:39:02.831Z,11.97
2019-06-07T05:40:02.613Z,11.83
2019-06-07T05:41:02.639Z,11.96
2019-06-07T05:42:02.668Z,12.26
2019-06-07T05:43:02.634Z,11.90
2019-06-07T05:44:12.491Z,12.07
2019-06-07T05:45:02.526Z,12.28
2019-06-07T05:46:02.789Z,12.53
2019-06-07T05:47:04.895Z,12.73
2019-06-07T05:48:02.835Z,12.86
2019-06-07T05:49:02.775Z,13.07
2019-06-07T05:50:03.458Z,12.99
2019-06-07T05:51:02.607Z,12.82
2019-06-07T05:52:02.617Z,12.37
2019-06-07T05:53:02.602Z,12.32
2019-06-07T05:54:02.655Z,12.30
2019-06-07T05:55:02.760Z,12.52
2019-06-07T05:56:02.688Z,12.74
2019-06-07T05:57:02.670Z,12.80
2019-06-07T05:58:02.737Z,13.07
2019-06-07T05:59:02.650Z,12.56
2019-06-07T06:00:02.753Z,12.74
2019-06-07T06:01:41.637Z,12.88
2019-06-07T06:02:14.036Z,13.00
2019-06-07T06:03:05.869Z,12.78
2019-06-07T06:04:02.725Z,12.53
2019-06-07T06:05:02.851Z,12.67
2019-06-07T06:06:02.693Z,12.84
2019-06-07T06:07:02.647Z,12.80
2019-06-07T06:08:02.659Z,12.96
2019-06-07T06:09:13.358Z,13.12
2019-06-07T06:10:03.035Z,13.14
2019-06-07T06:11:02.635Z,13.03
2019-06-07T06:12:02.798Z,12.98
2019-06-07T06:13:02.618Z,13.19
2019-06-07T06:14:07.371Z,13.32
2019-06-07T06:15:02.690Z,13.19
2019-06-07T06:16:02.692Z,13.02
2019-06-07T06:17:02.860Z,13.09
2019-06-07T06:18:02.693Z,13.26
2019-06-07T06:19:02.721Z,12.93
2019-06-07T06:20:02.884Z,12.91
2019-06-07T06:21:16.178Z,12.94
2019-06-07T06:22:02.712Z,12.27
2019-06-07T06:23:02.831Z,12.68
2019-06-07T06:24:02.624Z,12.93
2019-06-07T06:25:30.606Z,13.14
2019-06-07T06:26:02.657Z,13.12
2019-06-07T06:27:28.261Z,13.04
2019-06-07T06:28:11.006Z,13.20
2019-06-07T06:29:02.669Z,13.39
2019-06-07T06:30:02.666Z,13.53
2019-06-07T06:31:02.965Z,13.26
2019-06-07T06:32:40.555Z,12.96
2019-06-07T06:33:02.666Z,13.07
2019-06-07T06:34:02.829Z,13.06
2019-06-07T06:35:02.740Z,13.00
2019-06-07T06:36:02.759Z,13.03
2019-06-07T06:37:02.603Z,13.06
2019-06-07T06:38:02.705Z,13.22
2019-06-07T06:39:02.717Z,13.42
2019-06-07T06:40:02.773Z,13.68
2019-06-07T06:41:15.142Z,13.78
2019-06-07T06:42:03.940Z,13.70
2019-06-07T06:43:02.703Z,13.27
2019-06-07T06:44:02.920Z,12.77
2019-06-07T06:45:02.798Z,12.97
2019-06-07T06:46:02.802Z,13.14
2019-06-07T06:47:02.725Z,13.48
2019-06-07T06:48:02.980Z,13.79
2019-06-07T06:49:05.970Z,13.39
2019-06-07T06:50:02.858Z,13.74
2019-06-07T06:51:02.964Z,12.88
2019-06-07T06:52:03.613Z,12.48
2019-06-07T06:53:02.764Z,12.88
2019-06-07T06:54:02.766Z,13.26
2019-06-07T06:55:02.991Z,13.39
2019-06-07T06:56:02.780Z,13.18
2019-06-07T06:57:19.229Z,12.69
2019-06-07T06:58:02.667Z,12.93
2019-06-07T06:59:34.144Z,12.78
2019-06-07T07:00:02.689Z,12.66
2019-06-07T07:01:06.975Z,13.00
2019-06-07T07:02:03.029Z,13.24
2019-06-07T07:03:47.316Z,12.97
2019-06-07T07:04:11.249Z,13.45
2019-06-07T07:05:02.741Z,13.33
2019-06-07T07:06:24.573Z,12.78
2019-06-07T07:07:02.663Z,13.21
2019-06-07T07:08:02.914Z,13.32
2019-06-07T07:09:02.649Z,13.30
2019-06-07T07:10:03.188Z,13.19
2019-06-07T07:11:02.781Z,13.41
2019-06-07T07:13:02.712Z,13.15
2019-06-07T07:14:03.015Z,13.12
2019-06-07T07:15:02.767Z,13.07
2019-06-07T07:16:02.836Z,13.33
2019-06-07T07:17:03.115Z,12.88
2019-06-07T07:18:08.218Z,12.93
2019-06-07T07:19:02.748Z,13.38
2019-06-07T07:20:02.748Z,13.81
2019-06-07T07:21:02.840Z,14.17
2019-06-07T07:22:02.804Z,14.09
2019-06-07T07:23:02.798Z,13.45
2019-06-07T07:24:20.512Z,13.54
2019-06-07T07:25:02.709Z,13.83
2019-06-07T07:26:02.726Z,13.91
2019-06-07T07:27:04.702Z,14.31
2019-06-07T07:28:02.904Z,14.56
2019-06-07T07:29:02.858Z,14.60
2019-06-07T07:30:35.434Z,14.54
2019-06-07T07:31:02.723Z,14.55
2019-06-07T07:32:02.775Z,14.75
2019-06-07T07:33:04.603Z,15.27
2019-06-07T07:34:34.765Z,15.43
2019-06-07T07:35:02.754Z,14.89
2019-06-07T07:36:22.690Z,14.65
2019-06-07T07:37:02.796Z,14.54
2019-06-07T07:38:02.983Z,14.77
2019-06-07T07:39:05.015Z,15.16
2019-06-07T07:40:54.846Z,15.15
2019-06-07T07:41:13.994Z,15.41
2019-06-07T07:43:02.754Z,14.73
2019-06-07T07:44:07.131Z,14.96
2019-06-07T07:45:02.772Z,15.33
2019-06-07T07:46:06.097Z,15.66
2019-06-07T07:47:02.748Z,14.97
2019-06-07T07:49:02.888Z,14.14
2019-06-07T07:50:02.782Z,14.03
2019-06-07T07:51:03.340Z,14.45
2019-06-07T07:52:02.790Z,13.97
2019-06-07T07:53:02.707Z,14.59
2019-06-07T07:54:10.632Z,15.21
2019-06-07T07:55:02.726Z,15.42
2019-06-07T07:56:02.989Z,15.59
2019-06-07T07:57:02.764Z,15.01
2019-06-07T07:58:02.765Z,14.77
2019-06-07T07:59:03.032Z,14.41
2019-06-07T08:00:48.019Z,14.42
2019-06-07T08:01:09.998Z,14.29
2019-06-07T08:02:02.755Z,14.57
2019-06-07T08:03:04.589Z,14.66
2019-06-07T08:04:02.771Z,14.40
2019-06-07T08:05:22.646Z,14.35
2019-06-07T08:06:02.788Z,14.53
2019-06-07T08:07:02.798Z,14.60
2019-06-07T08:08:07.661Z,14.26
2019-06-07T08:09:02.695Z,14.31
2019-06-07T08:10:04.271Z,14.43
2019-06-07T08:11:02.950Z,14.44
2019-06-07T08:12:02.816Z,14.63
2019-06-07T08:13:23.957Z,14.61
2019-06-07T08:14:02.776Z,14.94
2019-06-07T08:15:03.744Z,15.32
2019-06-07T08:16:10.786Z,15.46
2019-06-07T08:17:02.813Z,15.11
2019-06-07T08:18:04.399Z,15.21
2019-06-07T08:19:04.109Z,15.67
2019-06-07T08:20:03.295Z,15.64
2019-06-07T08:21:21.104Z,14.68
2019-06-07T08:22:02.919Z,15.22
2019-06-07T08:23:02.975Z,14.72
2019-06-07T08:24:05.127Z,14.49
2019-06-07T08:25:04.441Z,14.56
2019-06-07T08:26:02.756Z,14.61
2019-06-07T08:27:24.646Z,14.51
2019-06-07T08:28:02.759Z,14.79
2019-06-07T08:29:03.197Z,15.02
2019-06-07T08:30:15.952Z,15.66
2019-06-07T08:31:06.689Z,15.38
2019-06-07T08:32:02.789Z,15.49
2019-06-07T08:33:24.600Z,15.01
2019-06-07T08:34:02.839Z,15.01
2019-06-07T08:35:10.326Z,14.84
2019-06-07T08:36:16.909Z,14.87
2019-06-07T08:37:02.861Z,15.72
2019-06-07T08:38:24.845Z,15.62
2019-06-07T08:39:07.189Z,15.02
2019-06-07T08:40:02.849Z,15.16
2019-06-07T08:41:11.477Z,15.52
2019-06-07T08:42:15.470Z,16.28
2019-06-07T08:44:22.364Z,16.68
2019-06-07T08:45:05.649Z,16.18
2019-06-07T08:46:07.480Z,16.77
2019-06-07T08:47:19.310Z,17.30
2019-06-07T08:48:12.917Z,17.77
2019-06-07T08:49:04.593Z,17.99
2019-06-07T08:50:07.487Z,18.62
2019-06-07T08:51:08.165Z,18.22
2019-06-07T08:52:10.462Z,18.73
2019-06-07T08:53:11.266Z,19.29
2019-06-07T08:55:05.107Z,17.73
2019-06-07T08:56:06.947Z,16.60
2019-06-07T08:57:19.347Z,16.09
2019-06-07T08:58:08.166Z,16.06
2019-06-07T08:59:10.814Z,16.43
2019-06-07T09:00:07.162Z,15.85
2019-06-07T09:01:07.843Z,16.35
2019-06-07T09:02:14.506Z,17.10
2019-06-07T09:03:06.876Z,16.98
2019-06-07T09:04:07.754Z,17.27
2019-06-07T09:05:11.602Z,17.15
2019-06-07T09:06:16.016Z,16.74
2019-06-07T09:07:15.222Z,15.93
2019-06-07T09:08:23.610Z,17.72
2019-06-07T09:09:05.175Z,17.75
2019-06-07T09:10:12.702Z,17.73
2019-06-07T09:11:10.154Z,16.73
2019-06-07T09:12:08.110Z,16.90
2019-06-07T09:13:04.937Z,17.12
2019-06-07T09:14:08.659Z,17.51
2019-06-07T09:15:14.791Z,17.05
2019-06-07T09:16:08.012Z,16.22
2019-06-07T09:17:08.757Z,16.08
2019-06-07T09:18:40.061Z,16.06
2019-06-07T09:19:06.680Z,16.42
2019-06-07T09:20:09.414Z,16.40
2019-06-07T09:21:07.688Z,16.30
2019-06-07T09:22:08.261Z,17.10
2019-06-07T09:23:11.571Z,17.80
2019-06-07T09:24:08.392Z,18.89
2019-06-07T09:25:10.317Z,19.32
2019-06-07T09:26:06.402Z,18.69
2019-06-07T09:27:07.204Z,17.07
2019-06-07T09:28:13.411Z,16.52
2019-06-07T09:29:07.049Z,16.56
2019-06-07T09:30:08.838Z,16.88
2019-06-07T09:31:08.437Z,16.98
2019-06-07T09:32:05.901Z,17.06
2019-06-07T09:33:05.746Z,17.65
2019-06-07T09:34:08.649Z,18.29
2019-06-07T09:35:08.480Z,17.40
2019-06-07T09:36:09.202Z,16.33
2019-06-07T09:37:23.176Z,16.96
2019-06-07T09:38:11.033Z,17.95
2019-06-07T09:39:08.386Z,18.08
2019-06-07T09:40:19.402Z,17.98
2019-06-07T09:41:05.748Z,17.96
2019-06-07T09:42:08.437Z,17.87
2019-06-07T09:43:55.363Z,18.07
2019-06-07T09:44:19.098Z,17.53
2019-06-07T09:45:06.551Z,17.72
2019-06-07T09:46:09.411Z,18.18
2019-06-07T09:47:29.579Z,19.30
2019-06-07T09:48:10.084Z,19.63
2019-06-07T09:49:19.155Z,19.03
2019-06-07T09:50:07.091Z,18.87
2019-06-07T09:51:09.719Z,18.35
2019-06-07T09:52:07.389Z,18.17
2019-06-07T09:53:10.082Z,17.77
2019-06-07T09:54:06.866Z,18.07
2019-06-07T09:55:09.182Z,17.89
2019-06-07T09:56:06.363Z,18.06
2019-06-07T09:57:05.336Z,18.73
2019-06-07T09:58:47.866Z,19.89
2019-06-07T09:59:06.702Z,20.45
2019-06-07T10:00:33.543Z,20.52
2019-06-07T10:01:06.178Z,18.92
2019-06-07T10:02:05.239Z,18.64
2019-06-07T10:03:08.826Z,19.64
2019-06-07T10:04:08.260Z,19.33
2019-06-07T10:05:05.204Z,20.16
2019-06-07T10:06:07.547Z,20.75
2019-06-07T10:07:10.493Z,20.85
2019-06-07T10:08:14.539Z,18.89
2019-06-07T10:10:24.768Z,17.25
2019-06-07T10:11:03.107Z,17.63
2019-06-07T10:12:04.559Z,17.87
2019-06-07T10:13:04.097Z,17.81
2019-06-07T10:14:03.007Z,17.97
2019-06-07T10:15:03.210Z,17.87
2019-06-07T10:16:02.952Z,18.03
2019-06-07T10:17:09.185Z,18.03
2019-06-07T10:18:03.209Z,18.78
2019-06-07T10:19:03.651Z,20.17
2019-06-07T10:20:04.009Z,19.50
2019-06-07T10:21:03.774Z,18.74
2019-06-07T10:22:03.315Z,18.84
2019-06-07T10:23:05.570Z,19.84
2019-06-07T10:24:03.472Z,20.86
2019-06-07T10:25:04.383Z,18.83
2019-06-07T10:26:04.051Z,19.02
2019-06-07T10:27:04.003Z,18.74
2019-06-07T10:28:03.830Z,18.92
2019-06-07T10:29:05.559Z,19.23
2019-06-07T10:30:04.075Z,20.05
2019-06-07T10:31:04.514Z,19.43
2019-06-07T10:32:04.420Z,19.28
2019-06-07T10:33:04.673Z,18.86
2019-06-07T10:34:04.168Z,19.45
2019-06-07T10:35:03.633Z,19.34
2019-06-07T10:36:04.426Z,20.67
2019-06-07T10:37:05.551Z,19.78
2019-06-07T10:38:04.476Z,19.73
2019-06-07T10:39:03.211Z,19.27
2019-06-07T10:40:03.126Z,19.82
2019-06-07T10:41:03.013Z,20.49
2019-06-07T10:42:04.579Z,19.97
2019-06-07T10:43:03.135Z,19.18
2019-06-07T10:44:03.309Z,20.31
2019-06-07T10:45:04.881Z,21.89
2019-06-07T10:46:03.625Z,22.25
2019-06-07T10:47:03.981Z,23.13
2019-06-07T10:48:03.612Z,23.67
2019-06-07T10:49:03.829Z,23.57
2019-06-07T10:50:03.884Z,20.99
2019-06-07T10:51:04.205Z,20.19
2019-06-07T10:52:04.817Z,20.16
2019-06-07T10:53:04.298Z,20.38
2019-06-07T10:54:11.230Z,19.99
2019-06-07T10:55:04.465Z,20.81
2019-06-07T10:56:04.765Z,21.23
2019-06-07T10:57:04.745Z,20.48
2019-06-07T10:58:03.100Z,20.28
2019-06-07T10:59:03.215Z,20.77
2019-06-07T11:00:03.541Z,20.86
2019-06-07T11:01:03.409Z,20.25
2019-06-07T11:02:03.495Z,20.73
2019-06-07T11:03:03.589Z,21.76
2019-06-07T11:04:03.405Z,20.57
2019-06-07T11:05:03.705Z,21.07
2019-06-07T11:06:03.739Z,20.01
2019-06-07T11:07:04.464Z,21.26
2019-06-07T11:08:03.886Z,22.62
2019-06-07T11:09:03.782Z,21.57
2019-06-07T11:10:10.702Z,21.38
2019-06-07T11:11:03.850Z,22.35
2019-06-07T11:12:04.316Z,22.59
2019-06-07T11:13:04.084Z,22.57
2019-06-07T11:14:04.287Z,21.98
2019-06-07T11:15:04.455Z,20.70
2019-06-07T11:16:04.596Z,20.98
2019-06-07T11:17:03.029Z,20.95
2019-06-07T11:18:03.224Z,21.60
2019-06-07T11:19:03.031Z,21.34
2019-06-07T11:20:03.103Z,21.40
2019-06-07T11:21:03.267Z,21.71
2019-06-07T11:22:03.171Z,22.30
2019-06-07T11:23:03.004Z,22.92
2019-06-07T11:24:03.281Z,23.94
2019-06-07T11:25:03.459Z,24.53
2019-06-07T11:26:03.308Z,24.52
2019-06-07T11:27:03.476Z,22.75
2019-06-07T11:28:03.573Z,22.70
2019-06-07T11:29:03.328Z,22.20
2019-06-07T11:30:03.213Z,22.10
2019-06-07T11:31:03.117Z,22.34
2019-06-07T11:32:03.193Z,22.55
2019-06-07T11:33:03.094Z,22.75
2019-06-07T11:34:03.147Z,23.48
2019-06-07T11:35:03.022Z,24.23
2019-06-07T11:36:03.139Z,22.78
2019-06-07T11:37:03.106Z,22.82
2019-06-07T11:38:03.194Z,22.70
2019-06-07T11:39:03.108Z,22.61
2019-06-07T11:40:03.077Z,23.25
2019-06-07T11:41:03.090Z,23.64
2019-06-07T11:42:03.389Z,23.59
2019-06-07T11:43:03.133Z,24.09
2019-06-07T11:44:03.154Z,23.87
2019-06-07T11:45:03.092Z,24.97
2019-06-07T11:46:03.176Z,25.16
2019-06-07T11:47:03.023Z,26.18
2019-06-07T11:48:03.023Z,26.50
2019-06-07T11:49:03.266Z,26.45
2019-06-07T11:50:03.053Z,27.09
2019-06-07T11:51:03.179Z,26.02
2019-06-07T11:52:03.056Z,25.48
2019-06-07T11:53:06.484Z,24.87
2019-06-07T11:54:03.152Z,26.22
2019-06-07T12:11:14.378Z,24.36
2019-06-07T12:12:10.406Z,25.58
2019-06-07T12:13:10.461Z,26.66
2019-06-07T12:14:11.017Z,27.11
2019-06-07T12:15:10.991Z,27.97
2019-06-07T12:16:11.251Z,27.78
2019-06-07T12:17:11.252Z,28.02
2019-06-07T12:18:11.240Z,26.53
2019-06-07T12:19:11.857Z,26.30
2019-06-07T12:20:11.367Z,26.37
2019-06-07T12:21:11.522Z,26.58
2019-06-07T12:22:11.645Z,24.79
2019-06-07T12:23:11.934Z,24.24
2019-06-07T12:24:10.512Z,24.99
2019-06-07T12:25:10.625Z,24.51
2019-06-07T12:26:10.355Z,25.34
2019-06-07T12:27:10.365Z,25.35
2019-06-07T12:28:10.718Z,25.87
2019-06-07T12:29:10.727Z,26.55
2019-06-07T12:30:18.125Z,26.69
2019-06-07T12:31:10.884Z,27.05
2019-06-07T12:32:11.454Z,27.70
2019-06-07T12:33:11.270Z,28.25
2019-06-07T12:34:11.253Z,28.86
2019-06-07T12:35:11.458Z,27.22
2019-06-07T13:28:44.953Z,32.44
2019-06-07T13:29:44.840Z,29.06
2019-06-07T13:30:44.918Z,27.87
2019-06-07T13:31:44.877Z,28.78
2019-06-07T13:32:45.033Z,29.91
2019-06-07T13:33:44.969Z,30.66
2019-06-07T13:34:44.994Z,28.16
2019-06-07T13:35:44.883Z,29.98
2019-06-07T13:36:44.936Z,30.69
2019-06-07T13:37:45.728Z,29.55
2019-06-07T13:38:44.953Z,28.92
2019-06-07T13:39:45.009Z,29.43
2019-06-07T13:40:44.913Z,30.48
2019-06-07T13:41:44.974Z,31.79
2019-06-07T13:42:44.779Z,32.37
2019-06-07T13:43:44.875Z,32.41
2019-06-07T13:44:45.107Z,32.30
2019-06-07T13:45:44.725Z,33.06
2019-06-07T13:46:44.856Z,32.45
2019-06-07T13:47:44.899Z,30.94
2019-06-07T13:48:44.949Z,30.34
2019-06-07T13:49:45.021Z,27.95
2019-06-07T13:50:44.855Z,26.56
2019-06-07T13:51:44.942Z,25.81
2019-06-07T13:52:46.706Z,26.81
2019-06-07T13:53:44.985Z,26.80
2019-06-07T13:54:44.952Z,27.52
2019-06-07T13:55:44.944Z,26.72
2019-06-07T13:57:01.289Z,27.79
2019-06-07T13:57:44.957Z,27.33
2019-06-07T13:58:44.940Z,26.29
2019-06-07T13:59:45.052Z,26.72
2019-06-07T14:00:44.855Z,26.58
2019-06-07T14:01:44.907Z,27.02
2019-06-07T14:02:44.949Z,26.10
2019-06-07T14:03:44.907Z,26.37
2019-06-07T14:04:44.938Z,27.03
2019-06-07T14:05:44.834Z,27.30
2019-06-07T14:06:45.074Z,27.15
2019-06-07T14:07:44.818Z,26.54
2019-06-07T14:08:45.066Z,25.86